Time;durP1;ratioP1;P1;durP2;ratioP2;P2;SDS_P1;SDS_P2;PMS_P1;PMS_P2;Temp;Humidity;BMP_temperature;BMP_pressure;BME280_temperature;BME280_humidity;BME280_pressure;Samples;Min_cycle;Max_cycle;Signal;HPM_P1;HPM_P2
2021/09/14 00:00:52;;;;;;;11.65;4.00;;;;;;;10.91;100.00;99700.66;4993406;28;20474;-67
2021/09/14 00:03:19;;;;;;;11.05;4.85;;;;;;;10.96;100.00;99705.28;4993959;28;20076;-67
2021/09/14 00:05:44;;;;;;;7.95;4.15;;;;;;;11.03;100.00;99708.63;4994222;28;20108;-67
2021/09/14 00:08:10;;;;;;;7.80;4.47;;;;;;;11.06;100.00;99713.53;4994444;28;20133;-67
2021/09/14 00:10:36;;;;;;;11.68;4.20;;;;;;;11.10;100.00;99714.66;4993631;28;20031;-67
2021/09/14 00:13:02;;;;;;;7.70;3.88;;;;;;;11.16;100.00;99706.66;4995352;28;20037;-67
2021/09/14 00:15:28;;;;;;;14.38;4.57;;;;;;;11.31;99.97;99708.78;4992892;28;20037;-67
2021/09/14 00:17:53;;;;;;;20.65;4.53;;;;;;;11.34;99.76;99710.97;4995497;28;20386;-67
2021/09/14 00:20:19;;;;;;;6.90;3.63;;;;;;;11.40;99.46;99705.38;4992292;28;20034;-67
2021/09/14 00:22:45;;;;;;;9.65;3.85;;;;;;;11.43;99.30;99699.50;4993194;28;20193;-67
2021/09/14 00:25:11;;;;;;;6.35;3.53;;;;;;;11.47;99.10;99699.81;4991894;28;20081;-67
2021/09/14 00:27:37;;;;;;;10.63;3.50;;;;;;;11.50;98.78;99699.31;4999233;28;20026;-67
2021/09/14 00:30:03;;;;;;;8.65;3.47;;;;;;;11.52;98.30;99691.78;4995287;28;20064;-67
2021/09/14 00:32:29;;;;;;;5.75;3.70;;;;;;;11.55;98.27;99694.00;4995261;28;20385;-67
2021/09/14 00:34:55;;;;;;;5.53;3.90;;;;;;;11.55;98.21;99696.69;4992222;28;20114;-67
2021/09/14 00:37:21;;;;;;;9.38;4.00;;;;;;;11.57;97.82;99688.34;4994318;28;20034;-67
2021/09/14 00:39:46;;;;;;;10.05;4.10;;;;;;;11.52;97.43;99683.69;4992092;28;20047;-67
2021/09/14 00:42:12;;;;;;;10.00;3.85;;;;;;;11.50;97.56;99693.13;4990403;28;20117;-67
2021/09/14 00:44:37;;;;;;;11.40;4.07;;;;;;;11.48;97.96;99682.56;4991077;28;20034;-66
2021/09/14 00:47:03;;;;;;;7.55;4.10;;;;;;;11.49;98.20;99686.09;4990983;28;20034;-67
2021/09/14 00:49:29;;;;;;;10.18;4.65;;;;;;;11.52;97.79;99675.63;4998033;28;20029;-67
2021/09/14 00:51:54;;;;;;;5.78;3.70;;;;;;;11.53;97.78;99682.63;4993485;28;20092;-67
2021/09/14 00:54:20;;;;;;;7.53;3.95;;;;;;;11.54;98.13;99676.19;4991047;28;20027;-67
2021/09/14 00:56:46;;;;;;;10.38;4.38;;;;;;;11.55;97.90;99682.41;4989778;28;20460;-67
2021/09/14 00:59:12;;;;;;;10.55;4.63;;;;;;;11.53;98.01;99671.84;4995036;28;20557;-67
2021/09/14 01:01:37;;;;;;;8.95;3.97;;;;;;;11.53;97.56;99669.16;4996330;28;20061;-67
2021/09/14 01:04:04;;;;;;;9.00;4.32;;;;;;;11.54;97.96;99667.28;4992596;28;20030;-67
2021/09/14 01:06:31;;;;;;;11.52;4.40;;;;;;;11.57;97.57;99664.09;4994638;28;20035;-67
2021/09/14 01:09:00;;;;;;;15.80;4.13;;;;;;;11.53;97.90;99671.03;4993644;28;20042;-67
2021/09/14 01:11:31;;;;;;;11.70;4.15;;;;;;;11.50;98.13;99663.47;4991777;28;20030;-67
2021/09/14 01:14:07;;;;;;;7.55;4.03;;;;;;;11.46;98.38;99659.59;4993128;28;20035;-67
2021/09/14 01:16:35;;;;;;;9.60;4.15;;;;;;;11.43;98.53;99650.94;4990832;28;20034;-67
2021/09/14 01:19:02;;;;;;;9.63;4.07;;;;;;;11.37;98.89;99651.16;4994829;28;20108;-67
2021/09/14 01:21:29;;;;;;;11.73;4.20;;;;;;;11.33;98.91;99650.00;4991846;28;20444;-67
2021/09/14 01:23:55;;;;;;;12.35;4.95;;;;;;;11.22;99.22;99647.19;4996760;28;20037;-67
2021/09/14 01:26:21;;;;;;;11.23;4.15;;;;;;;11.18;99.03;99651.44;4991602;28;20034;-67
2021/09/14 01:28:47;;;;;;;9.75;6.88;;;;;;;11.08;98.71;99648.59;4994464;28;20088;-67
2021/09/14 01:31:13;;;;;;;11.55;6.28;;;;;;;11.06;99.57;99631.88;4995749;28;20475;-67
2021/09/14 01:33:38;;;;;;;10.43;5.80;;;;;;;10.97;99.49;99640.38;4994203;28;20030;-67
2021/09/14 01:36:05;;;;;;;13.77;4.78;;;;;;;10.94;100.00;99632.78;4998890;28;20037;-67
2021/09/14 01:38:30;;;;;;;26.20;5.95;;;;;;;10.96;100.00;99633.34;4998271;28;20038;-67
2021/09/14 01:40:56;;;;;;;12.30;4.43;;;;;;;11.12;100.00;99628.97;5003705;28;20022;-67
2021/09/14 01:43:22;;;;;;;11.90;4.32;;;;;;;11.20;100.00;99632.31;5007010;28;20060;-68
2021/09/14 01:45:48;;;;;;;6.82;3.78;;;;;;;11.15;100.00;99627.69;4997287;28;20029;-67
2021/09/14 01:48:13;;;;;;;8.75;4.22;;;;;;;11.07;100.00;99639.69;5001396;28;20038;-67
2021/09/14 01:50:40;;;;;;;16.45;4.65;;;;;;;11.00;100.00;99636.34;5002053;28;20037;-67
2021/09/14 01:53:05;;;;;;;9.07;4.13;;;;;;;10.97;100.00;99634.16;4997379;28;20052;-67
2021/09/14 01:55:31;;;;;;;8.82;4.75;;;;;;;10.98;100.00;99641.19;5006302;28;20551;-67
2021/09/14 01:57:58;;;;;;;9.50;4.45;;;;;;;10.95;100.00;99631.72;5001154;28;20058;-67
2021/09/14 02:00:26;;;;;;;6.18;4.20;;;;;;;10.95;100.00;99626.34;5004529;28;20029;-67
2021/09/14 02:05:50;;;;;;;10.43;4.60;;;;;;;11.02;100.00;99633.44;5000617;28;20061;-67
2021/09/14 02:59:35;;;;;;;20.45;5.55;;;;;;;11.67;100.00;99561.69;4936404;29;20130;-67
2021/09/14 03:02:00;;;;;;;13.23;5.50;;;;;;;11.62;100.00;99560.81;4934709;29;20040;-67
2021/09/14 03:04:26;;;;;;;15.00;5.47;;;;;;;11.69;100.00;99562.25;4977021;28;20057;-67
2021/09/14 03:06:52;;;;;;;14.20;5.35;;;;;;;11.66;100.00;99565.47;5006633;28;20037;-67
2021/09/14 03:09:17;;;;;;;13.25;5.45;;;;;;;11.60;100.00;99554.84;5009625;28;20065;-67
2021/09/14 03:11:43;;;;;;;11.75;5.63;;;;;;;11.61;100.00;99556.47;5003687;28;20559;-67
2021/09/14 03:14:08;;;;;;;15.70;5.63;;;;;;;11.55;100.00;99552.94;5008361;28;20595;-67
2021/09/14 03:16:35;;;;;;;14.20;6.45;;;;;;;11.61;100.00;99554.63;5008312;28;20033;-67
2021/09/14 03:19:00;;;;;;;10.93;5.60;;;;;;;11.59;100.00;99545.97;4999503;28;20026;-67
2021/09/14 03:21:26;;;;;;;11.40;5.95;;;;;;;11.52;100.00;99545.34;4977731;28;20057;-67
2021/09/14 03:23:52;;;;;;;13.55;5.57;;;;;;;11.57;100.00;99551.59;4997248;28;20121;-67
2021/09/14 03:26:17;;;;;;;16.05;6.03;;;;;;;11.51;100.00;99546.41;4999650;28;20531;-67
2021/09/14 03:28:43;;;;;;;11.02;5.63;;;;;;;11.47;100.00;99546.09;5000861;28;20034;-67
2021/09/14 03:31:09;;;;;;;13.70;5.63;;;;;;;11.44;100.00;99543.91;4991504;28;20057;-67
2021/09/14 03:33:34;;;;;;;11.05;5.55;;;;;;;11.43;100.00;99537.69;5012573;28;20075;-65
2021/09/14 03:36:00;;;;;;;18.02;7.03;;;;;;;11.43;100.00;99540.38;4986903;28;20041;-65
2021/09/14 03:38:26;;;;;;;12.07;6.20;;;;;;;11.43;100.00;99542.28;5003789;28;20025;-66
2021/09/14 03:40:51;;;;;;;22.00;6.72;;;;;;;11.43;100.00;99540.38;4996665;28;20812;-66
2021/09/14 03:43:18;;;;;;;16.83;8.63;;;;;;;11.43;100.00;99532.28;5001739;28;20038;-66
2021/09/14 03:45:48;;;;;;;14.63;8.48;;;;;;;11.44;100.00;99533.13;4989152;28;20057;-66
2021/09/14 03:48:14;;;;;;;16.15;9.27;;;;;;;11.45;100.00;99529.34;4997560;28;20109;-66
2021/09/14 03:50:41;;;;;;;20.83;9.70;;;;;;;11.52;100.00;99534.56;4999625;28;20687;-66
2021/09/14 03:53:07;;;;;;;19.25;9.55;;;;;;;11.58;100.00;99528.16;4992753;28;20038;-66
2021/09/14 03:55:32;;;;;;;19.48;9.85;;;;;;;11.61;100.00;99529.50;5002535;28;20444;-66
2021/09/14 03:57:58;;;;;;;23.83;9.98;;;;;;;11.63;100.00;99519.28;4996658;28;20045;-66
2021/09/14 04:00:24;;;;;;;26.08;9.73;;;;;;;11.65;100.00;99525.22;4992945;28;20037;-66
2021/09/14 04:02:53;;;;;;;21.40;9.20;;;;;;;11.73;100.00;99524.78;5002494;28;20407;-66
2021/09/14 04:05:44;;;;;;;20.98;8.77;;;;;;;11.67;100.00;99523.94;4994124;28;20065;-66
2021/09/14 04:10:41;;;;;;;21.45;9.73;;;;;;;11.62;100.00;99528.44;4998113;28;20034;-66
2021/09/14 04:13:07;;;;;;;21.77;9.30;;;;;;;11.59;100.00;99523.56;4994459;28;20478;-66
2021/09/14 04:15:34;;;;;;;19.88;9.40;;;;;;;11.58;100.00;99525.44;4999844;28;20057;-66
2021/09/14 04:17:59;;;;;;;24.17;9.55;;;;;;;11.59;100.00;99529.78;4999443;28;20034;-66
2021/09/14 04:20:25;;;;;;;21.27;9.55;;;;;;;11.62;100.00;99534.66;4994197;28;20104;-66
2021/09/14 04:22:50;;;;;;;31.15;10.82;;;;;;;11.58;100.00;99528.16;5003530;28;20080;-66
2021/09/14 04:25:16;;;;;;;23.30;10.02;;;;;;;11.60;100.00;99519.78;5007534;28;20038;-66
2021/09/14 04:27:41;;;;;;;20.02;9.75;;;;;;;11.61;100.00;99516.84;4997126;28;20590;-66
2021/09/14 04:30:10;;;;;;;20.20;9.93;;;;;;;11.71;100.00;99522.34;4995873;28;20034;-66
2021/09/14 04:32:36;;;;;;;20.20;10.15;;;;;;;11.83;100.00;99518.66;4994992;28;20084;-66
2021/09/14 04:35:03;;;;;;;24.33;10.68;;;;;;;11.77;100.00;99507.00;5011636;28;20038;-66
2021/09/14 04:37:28;;;;;;;20.15;10.73;;;;;;;11.87;100.00;99511.69;4992628;28;20105;-66
2021/09/14 04:39:54;;;;;;;24.45;10.50;;;;;;;11.91;100.00;99514.66;5005716;28;20484;-65
2021/09/14 04:42:20;;;;;;;25.67;10.85;;;;;;;11.98;100.00;99505.31;5004513;28;20069;-66
2021/09/14 04:44:46;;;;;;;19.67;10.98;;;;;;;11.90;100.00;99511.16;5001600;28;20041;-66
2021/09/14 04:47:11;;;;;;;22.10;11.85;;;;;;;11.85;100.00;99513.81;5002756;28;20045;-66
2021/09/14 04:49:37;;;;;;;19.95;10.88;;;;;;;11.88;100.00;99512.50;5001474;28;20096;-66
2021/09/14 04:52:06;;;;;;;20.25;10.88;;;;;;;11.86;100.00;99510.84;4993259;28;20034;-66
2021/09/14 04:54:37;;;;;;;20.55;10.45;;;;;;;11.91;100.00;99511.97;5000388;28;20153;-66
2021/09/14 04:57:04;;;;;;;23.83;10.63;;;;;;;11.84;100.00;99520.28;5000509;28;20042;-66
2021/09/14 04:59:30;;;;;;;26.42;10.82;;;;;;;11.83;100.00;99522.16;5001774;28;20034;-66
2021/09/14 05:01:57;;;;;;;20.30;10.85;;;;;;;11.78;100.00;99516.72;5003152;28;20034;-66
2021/09/14 05:04:23;;;;;;;19.95;10.77;;;;;;;11.84;100.00;99512.19;5005355;28;20034;-66
2021/09/14 05:06:49;;;;;;;24.27;10.98;;;;;;;11.78;100.00;99522.13;4994362;28;20031;-66
2021/09/14 05:09:15;;;;;;;24.50;10.77;;;;;;;11.89;100.00;99522.22;4998626;28;20432;-66
2021/09/14 05:11:41;;;;;;;21.13;10.32;;;;;;;11.91;100.00;99515.50;4999651;28;20042;-66
2021/09/14 05:14:07;;;;;;;19.17;9.13;;;;;;;11.84;100.00;99517.59;5012868;28;20022;-66
2021/09/14 05:16:33;;;;;;;23.08;10.15;;;;;;;11.96;100.00;99512.84;5001357;28;20129;-67
2021/09/14 05:19:01;;;;;;;22.85;10.38;;;;;;;11.99;100.00;99508.78;5000414;28;20109;-66
2021/09/14 05:21:27;;;;;;;26.80;10.23;;;;;;;11.87;100.00;99509.00;5001002;28;20113;-66
2021/09/14 05:23:53;;;;;;;22.40;9.93;;;;;;;11.99;100.00;99506.94;4995164;28;20114;-66
2021/09/14 05:26:21;;;;;;;17.13;9.48;;;;;;;11.93;100.00;99507.97;5003556;28;20096;-66
2021/09/14 05:28:47;;;;;;;15.43;9.20;;;;;;;12.00;100.00;99514.00;4999269;28;20081;-67
2021/09/14 05:31:13;;;;;;;14.48;9.70;;;;;;;12.04;100.00;99508.06;4995835;28;20415;-66
2021/09/14 05:33:39;;;;;;;19.55;10.57;;;;;;;11.95;100.00;99500.41;4996923;28;20558;-66
2021/09/14 05:36:06;;;;;;;24.27;11.40;;;;;;;11.90;100.00;99507.66;5001610;28;20060;-66
2021/09/14 05:38:32;;;;;;;23.67;11.18;;;;;;;11.83;100.00;99502.47;4998121;28;20026;-66
2021/09/14 05:40:58;;;;;;;20.23;12.05;;;;;;;11.82;100.00;99511.66;4999012;28;20369;-66
2021/09/14 05:43:26;;;;;;;32.60;12.07;;;;;;;11.80;100.00;99513.78;5006761;28;20042;-67
2021/09/14 05:45:52;;;;;;;23.85;11.05;;;;;;;11.83;100.00;99507.88;4997964;28;20038;-67
2021/09/14 05:48:17;;;;;;;29.38;11.60;;;;;;;11.78;100.00;99507.84;5003938;28;20040;-67
2021/09/14 05:50:43;;;;;;;19.92;11.10;;;;;;;11.84;100.00;99499.50;5001221;28;20038;-67
2021/09/14 05:53:09;;;;;;;23.63;10.73;;;;;;;11.83;100.00;99503.28;5003858;28;20069;-67
2021/09/14 05:55:39;;;;;;;23.20;11.13;;;;;;;11.77;100.00;99504.31;5004167;28;20041;-67
2021/09/14 05:58:05;;;;;;;25.65;10.40;;;;;;;11.79;100.00;99504.06;5004757;28;20455;-67
2021/09/14 06:00:32;;;;;;;23.48;10.80;;;;;;;11.76;100.00;99502.69;4999653;28;20107;-67
2021/09/14 06:02:57;;;;;;;27.77;15.05;;;;;;;11.75;100.00;99500.25;5000489;28;20035;-67
2021/09/14 06:05:23;;;;;;;25.20;10.82;;;;;;;11.74;100.00;99509.41;4995933;28;20037;-67
2021/09/14 06:07:49;;;;;;;21.88;10.52;;;;;;;11.73;100.00;99505.88;4997508;28;20105;-66
2021/09/14 06:10:14;;;;;;;25.60;11.23;;;;;;;11.77;100.00;99506.19;5004668;28;20026;-67
2021/09/14 06:12:40;;;;;;;27.48;10.55;;;;;;;11.81;100.00;99512.72;5009582;28;20058;-68
2021/09/14 06:15:06;;;;;;;27.88;11.50;;;;;;;11.80;100.00;99519.19;4998947;28;20030;-68
2021/09/14 06:17:32;;;;;;;21.95;11.40;;;;;;;11.82;100.00;99519.75;5008720;28;20113;-68
2021/09/14 06:19:58;;;;;;;22.92;11.18;;;;;;;11.85;100.00;99516.53;5004287;28;20048;-67
2021/09/14 06:22:24;;;;;;;22.95;10.93;;;;;;;11.93;100.00;99520.63;5008249;28;20061;-66
2021/09/14 06:24:50;;;;;;;26.10;10.82;;;;;;;11.95;100.00;99518.47;5002894;28;20037;-65
2021/09/14 06:27:16;;;;;;;22.45;11.27;;;;;;;11.96;100.00;99515.53;5001644;28;20088;-68
2021/09/14 06:29:43;;;;;;;19.83;10.90;;;;;;;11.91;100.00;99518.19;4993224;28;20509;-67
2021/09/14 06:32:08;;;;;;;17.73;11.50;;;;;;;11.90;100.00;99524.66;4984143;28;20044;-66
2021/09/14 06:34:34;;;;;;;28.10;11.68;;;;;;;11.85;100.00;99514.63;4993527;28;20046;-66
2021/09/14 06:37:00;;;;;;;23.92;12.85;;;;;;;11.81;100.00;99518.91;4995132;28;20030;-67
2021/09/14 06:39:26;;;;;;;20.90;12.55;;;;;;;12.00;100.00;99526.66;4998909;28;20789;-66
2021/09/14 06:41:52;;;;;;;27.75;12.75;;;;;;;11.97;100.00;99521.75;4998893;28;20467;-67
2021/09/14 06:44:18;;;;;;;28.02;12.35;;;;;;;11.83;100.00;99518.66;4999011;28;20044;-67
2021/09/14 06:46:43;;;;;;;34.55;14.02;;;;;;;11.78;100.00;99521.31;4996358;28;20041;-66
2021/09/14 06:49:09;;;;;;;27.65;14.05;;;;;;;11.79;100.00;99523.75;5011752;28;20067;-66
2021/09/14 06:51:36;;;;;;;28.02;14.43;;;;;;;11.78;100.00;99524.81;5001321;28;20042;-66
2021/09/14 06:54:02;;;;;;;22.23;12.90;;;;;;;11.88;100.00;99525.97;4998914;28;20081;-66
2021/09/14 06:56:27;;;;;;;21.67;12.57;;;;;;;11.88;100.00;99531.38;5001680;28;20022;-66
2021/09/14 06:58:53;;;;;;;23.60;12.02;;;;;;;11.88;100.00;99531.38;4992396;28;20455;-66
2021/09/14 07:01:20;;;;;;;30.65;12.55;;;;;;;11.81;100.00;99537.00;4998882;28;20041;-67
2021/09/14 07:03:45;;;;;;;23.23;12.45;;;;;;;11.77;100.00;99539.38;5000491;28;20399;-67
2021/09/14 07:06:11;;;;;;;26.67;12.27;;;;;;;11.87;100.00;99538.66;5004431;28;20048;-66
2021/09/14 07:08:37;;;;;;;22.02;11.48;;;;;;;11.95;100.00;99538.19;5002596;28;20034;-66
2021/09/14 07:11:02;;;;;;;25.48;11.75;;;;;;;11.91;100.00;99541.66;4999433;28;20400;-66
2021/09/14 07:13:28;;;;;;;28.90;12.00;;;;;;;12.04;100.00;99538.56;4995078;28;20069;-66
2021/09/14 07:15:53;;;;;;;24.27;11.35;;;;;;;12.00;100.00;99548.25;4999812;28;20030;-66
2021/09/14 07:18:19;;;;;;;20.20;11.68;;;;;;;11.96;100.00;99555.19;4996318;28;20023;-66
2021/09/14 07:20:45;;;;;;;21.60;12.55;;;;;;;11.93;100.00;99553.84;4995245;28;20045;-66
2021/09/14 07:23:11;;;;;;;24.20;11.40;;;;;;;11.92;100.00;99552.22;4975528;28;20064;-67
2021/09/14 07:25:40;;;;;;;23.95;12.55;;;;;;;11.92;100.00;99548.69;5005193;28;20088;-66
2021/09/14 07:28:06;;;;;;;23.85;12.07;;;;;;;11.94;100.00;99547.38;5005947;28;20438;-66
2021/09/14 07:30:32;;;;;;;24.30;12.05;;;;;;;11.92;100.00;99538.72;4993017;28;20034;-66
2021/09/14 07:32:58;;;;;;;26.58;11.90;;;;;;;11.92;100.00;99536.03;5002870;28;20034;-66
2021/09/14 07:35:25;;;;;;;22.23;10.90;;;;;;;11.96;100.00;99534.44;4980575;28;20345;-65
2021/09/14 07:37:50;;;;;;;22.83;11.55;;;;;;;11.97;100.00;99527.97;4977539;28;20116;-65
2021/09/14 07:40:17;;;;;;;27.08;12.23;;;;;;;12.02;100.00;99527.22;4966344;28;20131;-66
2021/09/14 07:42:42;;;;;;;28.92;12.20;;;;;;;12.00;100.00;99530.19;4983267;28;20081;-66
2021/09/14 07:45:08;;;;;;;24.75;11.43;;;;;;;12.06;99.85;99519.44;4997682;28;20484;-65
2021/09/14 07:47:34;;;;;;;22.13;11.52;;;;;;;12.07;99.73;99512.94;4993966;28;20037;-65
2021/09/14 07:50:00;;;;;;;25.10;11.77;;;;;;;12.11;99.54;99514.88;4980753;28;20026;-65
2021/09/14 07:52:25;;;;;;;28.67;12.75;;;;;;;12.10;99.75;99513.25;4997845;28;20054;-64
2021/09/14 07:54:51;;;;;;;24.02;11.35;;;;;;;12.08;100.00;99503.78;5002754;28;20373;-65
2021/09/14 07:57:16;;;;;;;36.17;13.35;;;;;;;12.08;100.00;99503.78;4991887;28;20034;-67
2021/09/14 07:59:42;;;;;;;35.40;13.63;;;;;;;11.95;100.00;99500.41;4978948;28;20041;-64
2021/09/14 08:02:08;;;;;;;36.65;14.32;;;;;;;11.98;100.00;99509.88;4993562;28;20193;-64
2021/09/14 08:04:34;;;;;;;29.00;14.00;;;;;;;11.94;100.00;99509.59;4991929;28;20045;-65
2021/09/14 08:07:00;;;;;;;30.70;14.35;;;;;;;11.98;100.00;99505.31;5004045;28;20041;-64
2021/09/14 08:09:28;;;;;;;43.00;14.30;;;;;;;11.95;100.00;99499.59;4977192;28;20261;-65
2021/09/14 08:11:54;;;;;;;34.13;15.70;;;;;;;11.98;100.00;99499.06;4994917;28;20030;-65
2021/09/14 08:14:20;;;;;;;31.58;14.65;;;;;;;11.96;100.00;99499.34;4992762;28;20026;-65
2021/09/14 08:16:45;;;;;;;30.70;15.35;;;;;;;12.03;100.00;99495.66;5001050;28;20526;-64
2021/09/14 08:19:11;;;;;;;36.63;14.70;;;;;;;12.01;100.00;99495.88;4983151;28;20030;-65
2021/09/14 08:21:37;;;;;;;38.63;15.20;;;;;;;12.00;100.00;99503.19;4992901;28;20041;-66
2021/09/14 08:24:06;;;;;;;28.83;14.85;;;;;;;12.05;100.00;99493.50;4995020;28;20069;-65
2021/09/14 08:26:31;;;;;;;42.13;15.90;;;;;;;12.10;100.00;99501.63;4993928;28;20026;-66
2021/09/14 08:28:57;;;;;;;35.53;16.10;;;;;;;12.05;100.00;99496.19;4989664;28;20052;-67
2021/09/14 08:31:23;;;;;;;31.77;16.45;;;;;;;12.05;100.00;99488.91;4992584;28;20080;-66
2021/09/14 08:33:48;;;;;;;38.70;18.25;;;;;;;12.17;100.00;99499.53;5007827;28;20052;-66
2021/09/14 08:36:14;;;;;;;37.00;17.40;;;;;;;12.08;100.00;99490.28;4978273;28;20033;-66
2021/09/14 08:38:40;;;;;;;37.55;18.08;;;;;;;12.15;100.00;99490.88;4988096;28;20510;-67
2021/09/14 08:41:06;;;;;;;38.03;16.75;;;;;;;12.17;100.00;99490.59;4981562;28;20038;-66
2021/09/14 08:43:37;;;;;;;34.47;16.63;;;;;;;12.20;100.00;99495.47;4991244;28;20432;-66
2021/09/14 08:46:03;;;;;;;35.25;17.48;;;;;;;12.14;100.00;99487.34;4993401;28;20326;-67
2021/09/14 08:48:29;;;;;;;32.92;16.77;;;;;;;12.19;100.00;99486.59;4979961;28;20400;-66
2021/09/14 08:50:55;;;;;;;31.67;15.95;;;;;;;12.22;100.00;99490.63;4988501;28;20037;-66
2021/09/14 08:53:21;;;;;;;27.00;14.95;;;;;;;12.23;100.00;99495.78;4961624;28;20049;-66
2021/09/14 08:55:46;;;;;;;29.58;16.05;;;;;;;12.15;100.00;99488.19;4988471;28;20049;-66
2021/09/14 08:58:13;;;;;;;33.60;16.70;;;;;;;12.21;100.00;99483.63;4981521;28;20400;-66
2021/09/14 09:00:44;;;;;;;38.92;16.40;;;;;;;12.12;100.00;99489.50;4973083;28;20030;-66
2021/09/14 09:03:10;;;;;;;40.20;17.98;;;;;;;12.13;100.00;99490.31;4987661;28;20125;-66
2021/09/14 09:05:40;;;;;;;38.58;18.23;;;;;;;12.13;100.00;99484.91;4986559;28;20133;-64
2021/09/14 09:08:20;;;;;;;40.58;20.27;;;;;;;12.06;100.00;99487.03;4986766;28;20104;-65
2021/09/14 09:11:13;;;;;;;43.08;21.48;;;;;;;12.07;100.00;99486.75;4979545;28;20049;-64
2021/09/14 09:13:44;;;;;;;48.45;23.95;;;;;;;12.22;100.00;99496.03;4995262;28;20039;-64
2021/09/14 09:16:19;;;;;;;47.63;23.70;;;;;;;12.18;100.00;99473.34;4989459;28;20529;-64
2021/09/14 09:18:51;;;;;;;48.03;24.73;;;;;;;12.22;100.00;99482.53;4985891;28;20124;-63
2021/09/14 09:21:18;;;;;;;51.40;27.55;;;;;;;12.34;100.00;99472.34;4983869;28;20022;-63
2021/09/14 09:23:44;;;;;;;51.67;26.42;;;;;;;12.35;100.00;99481.28;4991468;28;20134;-64
2021/09/14 09:26:10;;;;;;;50.00;25.65;;;;;;;12.25;100.00;99473.91;4987823;28;20117;-63
2021/09/14 09:28:36;;;;;;;46.15;26.75;;;;;;;12.19;100.00;99473.09;4964824;28;20038;-63
2021/09/14 09:31:09;;;;;;;51.03;26.42;;;;;;;12.23;100.00;99465.25;4985781;28;20030;-64
2021/09/14 09:33:37;;;;;;;43.17;25.80;;;;;;;12.31;100.00;99467.47;4999846;28;20033;-64
2021/09/14 09:36:08;;;;;;;44.60;25.25;;;;;;;12.30;100.00;99471.25;4996714;28;20030;-64
2021/09/14 09:38:57;;;;;;;41.42;25.05;;;;;;;12.36;100.00;99472.09;4991088;28;20058;-64
2021/09/14 09:41:23;;;;;;;46.10;25.73;;;;;;;12.31;100.00;99467.47;4990885;28;20121;-64
2021/09/14 09:43:49;;;;;;;46.97;26.42;;;;;;;12.29;100.00;99467.75;4993284;28;20552;-64
2021/09/14 09:46:21;;;;;;;43.20;26.63;;;;;;;12.37;100.00;99473.72;4991754;28;20399;-64
2021/09/14 09:48:48;;;;;;;45.55;27.50;;;;;;;12.39;100.00;99468.88;4988536;28;20026;-66
2021/09/14 09:51:15;;;;;;;44.88;25.67;;;;;;;12.41;100.00;99461.34;4990614;28;20042;-65
2021/09/14 09:53:41;;;;;;;57.90;26.65;;;;;;;12.40;100.00;99471.34;4999208;28;20044;-65
2021/09/14 09:56:07;;;;;;;45.67;27.20;;;;;;;12.44;100.00;99466.22;4996849;28;20038;-65
2021/09/14 09:58:33;;;;;;;55.40;26.40;;;;;;;12.45;100.00;99475.94;4992166;28;20232;-65
2021/09/14 10:01:13;;;;;;;52.95;28.42;;;;;;;12.41;100.00;99472.97;4983542;28;20479;-64
2021/09/14 10:04:19;;;;;;;45.65;26.55;;;;;;;12.42;100.00;99468.38;4995750;28;20048;-64
2021/09/14 10:07:05;;;;;;;45.72;27.20;;;;;;;12.43;100.00;99472.69;5001736;28;20081;-64
2021/09/14 10:09:53;;;;;;;47.60;28.48;;;;;;;12.34;100.00;99464.25;4986758;28;20861;-64
2021/09/14 10:12:37;;;;;;;56.42;29.92;;;;;;;12.35;100.00;99465.06;4996564;28;20044;-64
2021/09/14 10:15:22;;;;;;;50.20;31.60;;;;;;;12.34;100.00;99463.44;5003375;28;20044;-64
2021/09/14 10:18:07;;;;;;;59.75;33.92;;;;;;;12.39;100.00;99461.63;4996881;28;20472;-64
2021/09/14 10:20:51;;;;;;;60.00;31.70;;;;;;;12.45;100.00;99462.44;4978996;28;20530;-64
2021/09/14 10:23:38;;;;;;;53.20;31.98;;;;;;;12.38;100.00;99468.09;4996914;28;20519;-64
2021/09/14 10:26:32;;;;;;;54.65;31.10;;;;;;;12.49;100.00;99460.03;4999852;28;20042;-64
2021/09/14 10:29:19;;;;;;;56.75;30.98;;;;;;;12.44;100.00;99468.91;4985099;28;20041;-64
2021/09/14 10:32:08;;;;;;;57.03;30.90;;;;;;;12.50;100.00;99464.38;5001505;28;20068;-64
2021/09/14 10:34:36;;;;;;;48.05;30.10;;;;;;;12.54;100.00;99463.56;4996042;28;20046;-64
2021/09/14 10:37:11;;;;;;;56.38;31.55;;;;;;;12.54;100.00;99458.16;4997315;28;20040;-65
2021/09/14 10:39:37;;;;;;;49.13;29.30;;;;;;;12.50;100.00;99459.75;4987908;28;20077;-65
2021/09/14 10:42:16;;;;;;;54.63;28.80;;;;;;;12.51;100.00;99464.09;4995594;28;20034;-65
2021/09/14 10:44:43;;;;;;;44.22;27.48;;;;;;;12.47;100.00;99467.59;5000784;28;20034;-65
2021/09/14 10:47:17;;;;;;;44.35;28.35;;;;;;;12.42;100.00;99474.59;4990721;28;20483;-64
2021/09/14 10:50:00;;;;;;;48.78;28.65;;;;;;;12.47;100.00;99473.00;4980899;28;20068;-65
2021/09/14 10:52:37;;;;;;;44.72;27.92;;;;;;;12.51;100.00;99480.28;4998452;28;20108;-66
2021/09/14 10:55:13;;;;;;;44.85;28.08;;;;;;;12.60;100.00;99472.53;4997427;28;20080;-65
2021/09/14 10:58:02;;;;;;;40.30;25.73;;;;;;;12.64;100.00;99478.19;4995650;28;20038;-66
2021/09/14 11:00:31;;;;;;;39.83;25.83;;;;;;;12.61;100.00;99462.50;4983369;28;20053;-67
2021/09/14 11:03:06;;;;;;;40.97;26.55;;;;;;;12.53;100.00;99464.63;4986811;28;20062;-66
2021/09/14 11:05:36;;;;;;;38.38;26.08;;;;;;;12.58;100.00;99463.88;5000340;28;20034;-65
2021/09/14 11:08:09;;;;;;;36.00;24.88;;;;;;;12.60;100.00;99464.41;4982174;28;20034;-65
2021/09/14 11:10:35;;;;;;;37.85;23.58;;;;;;;12.61;100.00;99457.09;4981713;28;20054;-65
2021/09/14 11:13:02;;;;;;;33.05;22.70;;;;;;;12.63;100.00;99457.66;5003450;28;20104;-65
2021/09/14 11:15:27;;;;;;;36.40;25.15;;;;;;;12.70;100.00;99456.34;4991777;28;20567;-65
2021/09/14 11:17:53;;;;;;;38.95;24.98;;;;;;;12.64;100.00;99457.41;4980721;28;20033;-65
2021/09/14 11:20:21;;;;;;;48.55;25.52;;;;;;;12.78;100.00;99459.63;4979303;28;20110;-65
2021/09/14 11:22:49;;;;;;;39.72;25.65;;;;;;;12.80;100.00;99444.75;4980673;28;20034;-65
2021/09/14 11:25:18;;;;;;;36.10;25.02;;;;;;;12.85;100.00;99450.19;4988062;28;20117;-65
2021/09/14 11:28:01;;;;;;;33.03;24.75;;;;;;;12.85;100.00;99439.38;4981719;28;20049;-66
2021/09/14 11:30:29;;;;;;;35.55;24.08;;;;;;;12.81;100.00;99438.28;4985624;28;20026;-66
2021/09/14 11:32:56;;;;;;;34.50;23.88;;;;;;;12.76;100.00;99440.97;4994485;28;20057;-65
2021/09/14 11:35:22;;;;;;;35.00;23.08;;;;;;;12.73;100.00;99446.91;4987463;28;20022;-65
2021/09/14 11:38:03;;;;;;;42.60;24.83;;;;;;;12.82;100.00;99431.78;5011229;28;20057;-65
2021/09/14 11:40:32;;;;;;;35.85;23.73;;;;;;;12.93;100.00;99429.13;4981159;28;20395;-65
2021/09/14 11:43:00;;;;;;;39.63;24.15;;;;;;;12.90;100.00;99441.28;5003444;28;20034;-65
2021/09/14 11:45:29;;;;;;;36.28;23.25;;;;;;;12.98;100.00;99427.25;4992283;28;20170;-65
2021/09/14 11:47:57;;;;;;;32.67;23.00;;;;;;;13.07;100.00;99419.44;4993780;28;20483;-65
2021/09/14 11:50:29;;;;;;;29.80;21.23;;;;;;;13.14;100.00;99414.56;4991589;28;20518;-65
2021/09/14 11:53:18;;;;;;;36.50;21.65;;;;;;;13.02;100.00;99424.81;5002813;28;20041;-65
2021/09/14 11:56:14;;;;;;;27.27;20.70;;;;;;;13.10;100.00;99410.78;4995663;28;20041;-64
2021/09/14 11:58:58;;;;;;;49.17;20.33;;;;;;;13.07;100.00;99411.31;5002821;28;20454;-65
2021/09/14 12:01:31;;;;;;;25.90;19.88;;;;;;;13.05;100.00;99416.19;4996891;28;20042;-65
2021/09/14 12:03:58;;;;;;;32.03;22.05;;;;;;;13.09;100.00;99411.88;4990826;28;20048;-65
2021/09/14 12:06:33;;;;;;;33.65;22.17;;;;;;;13.10;100.00;99416.19;5003537;28;20209;-65
2021/09/14 12:09:01;;;;;;;33.83;22.98;;;;;;;13.10;100.00;99418.91;5000157;28;20491;-66
2021/09/14 12:11:32;;;;;;;40.28;23.75;;;;;;;13.00;100.00;99425.09;4996027;28;20031;-65
2021/09/14 12:14:01;;;;;;;41.80;25.20;;;;;;;13.14;100.00;99413.78;4996604;28;20443;-66
2021/09/14 12:16:28;;;;;;;34.78;22.65;;;;;;;13.21;100.00;99413.50;4993264;28;20045;-65